Marco Polo — BR2031 — position and weather

sailwx.info

Track history (hours):
 
Tides and Currents Weather Stations Pressure Air Temp Water Temp Dewpoint Dewpoint Depression Visibility Wind Speed Wind Dir Waves Ship Positions

Marco Polo

Last reported at 2015-Mar-04 18:33 UTC. Time now 2015-Mar-04 18:47 UTC.
Position N 24°25' E 118°17'.

Length 32 m.

MMSI: 416000256.

Date/timePositionNaut miles runAvg speedWind from/ knotsBaromVisibWave heightAir tempDewpointWater temp
2015-Mar-04 18:33N 24°25' E 118°17'0 0.0
2015-Mar-04 17:33N 24°25' E 118°17'0 0.0
2015-Mar-04 16:30N 24°25' E 118°17'0 0.0
2015-Mar-04 15:33N 24°25' E 118°17'0 0.0
2015-Mar-04 14:32N 24°25' E 118°17'7 1.5
2015-Mar-04 09:33N 24°31' E 118°13'7 7.0
2015-Mar-04 08:33N 24°25' E 118°17'0 0.3
2015-Mar-04 07:31N 24°25' E 118°17'0 0.0
2015-Mar-04 06:33N 24°25' E 118°17'0 0.0
2015-Mar-04 03:33N 24°25' E 118°17'0 0.0
2015-Mar-04 02:33N 24°25' E 118°17'0 0.0
2015-Mar-04 01:33N 24°25' E 118°17'0 0.0
2015-Mar-04 00:32N 24°25' E 118°17'0 0.0
2015-Mar-03 23:33N 24°25' E 118°17'0 0.0
2015-Mar-03 22:32N 24°25' E 118°17'0 0.0
2015-Mar-03 21:33N 24°25' E 118°17'0 0.0
2015-Mar-03 20:32N 24°25' E 118°17'0 0.0
2015-Mar-03 19:33N 24°25' E 118°17'0 0.0
2015-Mar-03 18:30N 24°25' E 118°17'0 0.0
2015-Mar-03 17:28N 24°25' E 118°17'0 0.0
2015-Mar-03 16:29N 24°25' E 118°17'0 0.0
2015-Mar-03 15:31N 24°25' E 118°17'0 0.0
2015-Mar-03 14:33N 24°25' E 118°17'0 0.0
2015-Mar-03 09:32N 24°25' E 118°17'0 0.5
2015-Mar-03 08:33N 24°25' E 118°17'9 9.2
2015-Mar-03 07:34N 24°32' E 118°11'9 8.9
2015-Mar-03 06:32N 24°25' E 118°17'0 0.0
2015-Mar-03 05:32N 24°25' E 118°17'7 7.2
2015-Mar-03 04:33N 24°31' E 118°13'2 2.2
2015-Mar-03 03:33N 24°32' E 118°11'9 9.0
2015-Mar-03 02:33N 24°25' E 118°17'0 0.5
2015-Mar-03 01:33N 24°25' E 118°17'0 0.0
2015-Mar-03 00:33N 24°25' E 118°17'0 0.0
2015-Mar-02 23:32N 24°25' E 118°17'0 0.0
2015-Mar-02 22:32N 24°25' E 118°17'0 0.0
2015-Mar-02 21:30N 24°25' E 118°17'0 0.0
2015-Mar-02 20:32N 24°25' E 118°17'0 0.0
2015-Mar-02 09:17N 24°25' E 118°17'0 0.0
2015-Mar-02 08:28N 24°25' E 118°17'0 0.0
2015-Mar-02 07:29N 24°25' E 118°17'1 1.4
2015-Mar-02 06:33N 24°27' E 118°17'8 7.6
2015-Mar-02 05:33N 24°32' E 118°11'1 0.8
2015-Mar-02 04:33N 24°32' E 118°12'8 7.8
2015-Mar-02 03:30N 24°25' E 118°17'1 0.8
2015-Mar-02 02:32N 24°26' E 118°17'7 7.5
2015-Mar-02 01:33N 24°32' E 118°12'8 8.0
2015-Mar-02 00:33N 24°25' E 118°17'0 0.0
2015-Mar-01 23:32N 24°25' E 118°17'0 0.0
2015-Mar-01 22:33N 24°25' E 118°17'0 0.0
2015-Mar-01 21:31N 24°25' E 118°17'0 0.0
2015-Mar-01 20:33N 24°25' E 118°17'0 0.0
2015-Mar-01 09:33N 24°25' E 118°17'9 9.0
2015-Mar-01 08:33N 24°32' E 118°11'9 8.8
2015-Mar-01 07:33N 24°25' E 118°17'0 0.1
2015-Mar-01 06:33N 24°25' E 118°17'0 0.1
2015-Mar-01 05:33N 24°25' E 118°17'0 0.0
2015-Mar-01 04:32N 24°25' E 118°17'9 9.2
2015-Mar-01 03:33N 24°32' E 118°11'2 1.7
2015-Mar-01 02:34N 24°31' E 118°13'7 7.4
2015-Mar-01 01:33N 24°25' E 118°17'0 0.0
2015-Mar-01 00:33N 24°25' E 118°17'0 0.0
2015-Feb-28 23:32N 24°25' E 118°17'0 0.0
2015-Feb-28 22:30N 24°25' E 118°17'0 0.0
2015-Feb-28 21:29N 24°25' E 118°17'0 0.0
2015-Feb-28 20:31N 24°25' E 118°17'0 0.0
2015-Feb-28 19:33N 24°25' E 118°17'0 0.0
2015-Feb-28 18:32N 24°25' E 118°17'0 0.0
2015-Feb-28 17:33N 24°25' E 118°17'0 0.0
2015-Feb-28 16:33N 24°25' E 118°17'0 0.0
2015-Feb-28 15:32N 24°25' E 118°17'0 0.0
2015-Feb-28 14:33N 24°25' E 118°17'0 0.0
2015-Feb-28 09:33N 24°25' E 118°17'0 0.0
2015-Feb-28 08:32N 24°25' E 118°17'4 3.6
2015-Feb-28 07:33N 24°28' E 118°16'6 5.9
2015-Feb-28 06:33N 24°32' E 118°11'9 9.0
2015-Feb-28 05:33N 24°25' E 118°17'0 0.1
2015-Feb-28 04:34N 24°25' E 118°17'0 0.0
2015-Feb-28 03:33N 24°25' E 118°17'2 2.2
2015-Feb-28 02:33N 24°27' E 118°17'6 5.9
2015-Feb-28 01:33N 24°31' E 118°13'8 7.6
2015-Feb-28 00:33N 24°25' E 118°17'0 0.0
2015-Feb-27 23:32N 24°25' E 118°17'0 0.0
2015-Feb-27 22:33N 24°25' E 118°17'0 0.0
2015-Feb-27 21:33N 24°25' E 118°17'0 0.0
2015-Feb-27 20:33N 24°25' E 118°17'0 0.0
2015-Feb-27 19:33N 24°25' E 118°17'0 0.0
2015-Feb-27 18:33N 24°25' E 118°17'0 0.0
2015-Feb-27 17:33N 24°25' E 118°17'0 0.0
2015-Feb-27 16:34N 24°25' E 118°17'0 0.0
2015-Feb-27 15:34N 24°25' E 118°17'0 0.0
2015-Feb-27 14:32N 24°25' E 118°17'0 0.0
2015-Feb-27 09:33N 24°25' E 118°17'9 8.6
2015-Feb-27 08:32N 24°32' E 118°11'9 9.0
2015-Feb-27 07:33N 24°25' E 118°17'0 0.3
2015-Feb-27 06:31N 24°25' E 118°17'0 0.0
2015-Feb-27 05:31N 24°25' E 118°17'0 0.0
2015-Feb-27 04:22N 24°25' E 118°17'0 0.0
2015-Feb-27 03:29N 24°25' E 118°17'0 0.0
2015-Feb-27 02:33N 24°25' E 118°17'0 0.3
2015-Feb-27 01:33N 24°26' E 118°17'6 6.2
2015-Feb-27 00:33N 24°31' E 118°13'7 6.9
2015-Feb-26 23:33N 24°25' E 118°17'0 0.0
2015-Feb-26 22:33N 24°25' E 118°17'0 0.0
2015-Feb-26 21:33N 24°25' E 118°17'0 0.0
2015-Feb-26 20:17N 24°25' E 118°17'0 0.0
2015-Feb-26 19:31N 24°25' E 118°17'0 0.0
2015-Feb-26 18:29N 24°25' E 118°17'0 0.0
2015-Feb-26 17:33N 24°25' E 118°17'0 0.0
2015-Feb-26 16:31N 24°25' E 118°17'0 0.0
2015-Feb-26 15:25N 24°25' E 118°17'9 1.5
2015-Feb-26 09:32N 24°32' E 118°12'9 8.7
2015-Feb-26 08:33N 24°25' E 118°17'0 0.4
2015-Feb-26 07:33N 24°25' E 118°17'0 0.4
2015-Feb-26 06:33N 24°25' E 118°17'9 9.0
2015-Feb-26 05:34N 24°32' E 118°11'1 0.9
2015-Feb-26 04:33N 24°32' E 118°12'8 0.5
2015-Feb-25 12:13N 24°25' E 118°17'0 0.0
2015-Feb-25 09:26N 24°25' E 118°17'1 1.6
2015-Feb-25 08:33N 24°27' E 118°17'7 6.5
2015-Feb-25 07:24N 24°32' E 118°11'910.3
2015-Feb-25 06:32N 24°25' E 118°17'1 1.4
2015-Feb-25 05:31N 24°27' E 118°17'2 0.8
2015-Feb-25 03:31N 24°25' E 118°17'0 0.3
2015-Feb-25 02:31N 24°25' E 118°17'0 0.2
2015-Feb-25 01:33N 24°25' E 118°17'0 0.0
2015-Feb-25 00:33N 24°25' E 118°17'0 0.0
2015-Feb-24 23:33N 24°25' E 118°17'0 0.0
2015-Feb-24 22:28N 24°25' E 118°17'0 0.0
2015-Feb-24 21:33N 24°25' E 118°17'0 0.0
2015-Feb-24 20:33N 24°25' E 118°17'0 0.0
2015-Feb-24 19:33N 24°25' E 118°17'0 0.0
2015-Feb-24 18:32N 24°25' E 118°17'0 0.0
2015-Feb-24 17:31N 24°25' E 118°17'0 0.0
2015-Feb-24 16:33N 24°25' E 118°17'0 0.0
2015-Feb-24 15:33N 24°25' E 118°17'0 0.0
2015-Feb-24 14:33N 24°25' E 118°17'0 0.0
2015-Feb-24 09:33N 24°25' E 118°17'0 0.0
2015-Feb-24 08:32N 24°25' E 118°17'2 1.6
2015-Feb-24 07:33N 24°27' E 118°17'7 7.3
2015-Feb-24 06:33N 24°32' E 118°11'8 8.3
2015-Feb-24 05:33N 24°26' E 118°17'1 0.7
2015-Feb-24 04:33N 24°25' E 118°17'0 0.1
2015-Feb-24 03:32N 24°25' E 118°17'1 1.4
2015-Feb-24 02:33N 24°26' E 118°17'6 6.2
2015-Feb-24 01:33N 24°31' E 118°13'7 7.5
2015-Feb-24 00:33N 24°25' E 118°17'0 0.0
2015-Feb-23 23:32N 24°25' E 118°17'0 0.0
2015-Feb-23 22:28N 24°25' E 118°17'0 0.0
2015-Feb-23 21:33N 24°25' E 118°17'0 0.0
2015-Feb-23 20:27N 24°25' E 118°17'0 0.0
2015-Feb-23 19:33N 24°25' E 118°17'0 0.0
2015-Feb-23 18:31N 24°25' E 118°17'0 0.0
2015-Feb-23 17:31N 24°25' E 118°17'0 0.0
2015-Feb-23 16:11N 24°25' E 118°17'0 0.0
2015-Feb-23 15:20N 24°25' E 118°17'0 0.0
2015-Feb-23 09:32N 24°25' E 118°17'9 9.1
2015-Feb-23 08:33N 24°32' E 118°11'9 8.7
2015-Feb-23 07:32N 24°25' E 118°17'0 0.3
2015-Feb-23 06:32N 24°25' E 118°17'0 0.0
2015-Feb-23 04:15N 24°25' E 118°17'710.0
2015-Feb-23 03:33N 24°31' E 118°13'0 0.2
2015-Feb-23 02:34N 24°31' E 118°13'8 7.5
2015-Feb-23 01:33N 24°25' E 118°17'0 0.1
2015-Feb-23 00:33N 24°25' E 118°17'0 0.0
2015-Feb-22 23:33N 24°25' E 118°17'0 0.0
2015-Feb-22 22:33N 24°25' E 118°17'0 0.0
2015-Feb-22 21:33N 24°25' E 118°17'0 0.0
2015-Feb-22 20:31N 24°25' E 118°17'0 0.0
2015-Feb-22 19:33N 24°25' E 118°17'0 0.0
2015-Feb-22 18:33N 24°25' E 118°17'  
Track history (hours):
 
Tides and Currents Weather Stations Pressure Air Temp Water Temp Dewpoint Dewpoint Depression Visibility Wind Speed Wind Dir Waves Ship Positions

Marco Polo

Last reported at 2015-Mar-04 18:33 UTC. Time now 2015-Mar-04 18:47 UTC.
Position N 24°25' E 118°17'.

Length 32 m.

MMSI: 416000256.

Date/timePositionNaut miles runAvg speedWind from/ knotsBaromVisibWave heightAir tempDewpointWater temp
2015-Mar-04 18:33N 24°25' E 118°17'0 0.0
2015-Mar-04 17:33N 24°25' E 118°17'0 0.0
2015-Mar-04 16:30N 24°25' E 118°17'0 0.0
2015-Mar-04 15:33N 24°25' E 118°17'0 0.0
2015-Mar-04 14:32N 24°25' E 118°17'7 1.5
2015-Mar-04 09:33N 24°31' E 118°13'7 7.0
2015-Mar-04 08:33N 24°25' E 118°17'0 0.3
2015-Mar-04 07:31N 24°25' E 118°17'0 0.0
2015-Mar-04 06:33N 24°25' E 118°17'0 0.0
2015-Mar-04 03:33N 24°25' E 118°17'0 0.0
2015-Mar-04 02:33N 24°25' E 118°17'0 0.0
2015-Mar-04 01:33N 24°25' E 118°17'0 0.0
2015-Mar-04 00:32N 24°25' E 118°17'0 0.0
2015-Mar-03 23:33N 24°25' E 118°17'0 0.0
2015-Mar-03 22:32N 24°25' E 118°17'0 0.0
2015-Mar-03 21:33N 24°25' E 118°17'0 0.0
2015-Mar-03 20:32N 24°25' E 118°17'0 0.0
2015-Mar-03 19:33N 24°25' E 118°17'0 0.0
2015-Mar-03 18:30N 24°25' E 118°17'0 0.0
2015-Mar-03 17:28N 24°25' E 118°17'0 0.0
2015-Mar-03 16:29N 24°25' E 118°17'0 0.0
2015-Mar-03 15:31N 24°25' E 118°17'0 0.0
2015-Mar-03 14:33N 24°25' E 118°17'0 0.0
2015-Mar-03 09:32N 24°25' E 118°17'0 0.5
2015-Mar-03 08:33N 24°25' E 118°17'9 9.2
2015-Mar-03 07:34N 24°32' E 118°11'9 8.9
2015-Mar-03 06:32N 24°25' E 118°17'0 0.0
2015-Mar-03 05:32N 24°25' E 118°17'7 7.2
2015-Mar-03 04:33N 24°31' E 118°13'2 2.2
2015-Mar-03 03:33N 24°32' E 118°11'9 9.0
2015-Mar-03 02:33N 24°25' E 118°17'0 0.5
2015-Mar-03 01:33N 24°25' E 118°17'0 0.0
2015-Mar-03 00:33N 24°25' E 118°17'0 0.0
2015-Mar-02 23:32N 24°25' E 118°17'0 0.0
2015-Mar-02 22:32N 24°25' E 118°17'0 0.0
2015-Mar-02 21:30N 24°25' E 118°17'0 0.0
2015-Mar-02 20:32N 24°25' E 118°17'0 0.0
2015-Mar-02 09:17N 24°25' E 118°17'0 0.0
2015-Mar-02 08:28N 24°25' E 118°17'0 0.0
2015-Mar-02 07:29N 24°25' E 118°17'1 1.4
2015-Mar-02 06:33N 24°27' E 118°17'8 7.6
2015-Mar-02 05:33N 24°32' E 118°11'1 0.8
2015-Mar-02 04:33N 24°32' E 118°12'8 7.8
2015-Mar-02 03:30N 24°25' E 118°17'1 0.8
2015-Mar-02 02:32N 24°26' E 118°17'7 7.5
2015-Mar-02 01:33N 24°32' E 118°12'8 8.0
2015-Mar-02 00:33N 24°25' E 118°17'0 0.0
2015-Mar-01 23:32N 24°25' E 118°17'0 0.0
2015-Mar-01 22:33N 24°25' E 118°17'0 0.0
2015-Mar-01 21:31N 24°25' E 118°17'0 0.0
2015-Mar-01 20:33N 24°25' E 118°17'0 0.0
2015-Mar-01 09:33N 24°25' E 118°17'9 9.0
2015-Mar-01 08:33N 24°32' E 118°11'9 8.8
2015-Mar-01 07:33N 24°25' E 118°17'0 0.1
2015-Mar-01 06:33N 24°25' E 118°17'0 0.1
2015-Mar-01 05:33N 24°25' E 118°17'0 0.0
2015-Mar-01 04:32N 24°25' E 118°17'9 9.2
2015-Mar-01 03:33N 24°32' E 118°11'2 1.7
2015-Mar-01 02:34N 24°31' E 118°13'7 7.4
2015-Mar-01 01:33N 24°25' E 118°17'0 0.0
2015-Mar-01 00:33N 24°25' E 118°17'0 0.0
2015-Feb-28 23:32N 24°25' E 118°17'0 0.0
2015-Feb-28 22:30N 24°25' E 118°17'0 0.0
2015-Feb-28 21:29N 24°25' E 118°17'0 0.0
2015-Feb-28 20:31N 24°25' E 118°17'0 0.0
2015-Feb-28 19:33N 24°25' E 118°17'0 0.0
2015-Feb-28 18:32N 24°25' E 118°17'0 0.0
2015-Feb-28 17:33N 24°25' E 118°17'0 0.0
2015-Feb-28 16:33N 24°25' E 118°17'0 0.0
2015-Feb-28 15:32N 24°25' E 118°17'0 0.0
2015-Feb-28 14:33N 24°25' E 118°17'0 0.0
2015-Feb-28 09:33N 24°25' E 118°17'0 0.0
2015-Feb-28 08:32N 24°25' E 118°17'4 3.6
2015-Feb-28 07:33N 24°28' E 118°16'6 5.9
2015-Feb-28 06:33N 24°32' E 118°11'9 9.0
2015-Feb-28 05:33N 24°25' E 118°17'0 0.1
2015-Feb-28 04:34N 24°25' E 118°17'0 0.0
2015-Feb-28 03:33N 24°25' E 118°17'2 2.2
2015-Feb-28 02:33N 24°27' E 118°17'6 5.9
2015-Feb-28 01:33N 24°31' E 118°13'8 7.6
2015-Feb-28 00:33N 24°25' E 118°17'0 0.0
2015-Feb-27 23:32N 24°25' E 118°17'0 0.0
2015-Feb-27 22:33N 24°25' E 118°17'0 0.0
2015-Feb-27 21:33N 24°25' E 118°17'0 0.0
2015-Feb-27 20:33N 24°25' E 118°17'0 0.0
2015-Feb-27 19:33N 24°25' E 118°17'0 0.0
2015-Feb-27 18:33N 24°25' E 118°17'0 0.0
2015-Feb-27 17:33N 24°25' E 118°17'0 0.0
2015-Feb-27 16:34N 24°25' E 118°17'0 0.0
2015-Feb-27 15:34N 24°25' E 118°17'0 0.0
2015-Feb-27 14:32N 24°25' E 118°17'0 0.0
2015-Feb-27 09:33N 24°25' E 118°17'9 8.6
2015-Feb-27 08:32N 24°32' E 118°11'9 9.0
2015-Feb-27 07:33N 24°25' E 118°17'0 0.3
2015-Feb-27 06:31N 24°25' E 118°17'0 0.0
2015-Feb-27 05:31N 24°25' E 118°17'0 0.0
2015-Feb-27 04:22N 24°25' E 118°17'0 0.0
2015-Feb-27 03:29N 24°25' E 118°17'0 0.0
2015-Feb-27 02:33N 24°25' E 118°17'0 0.3
2015-Feb-27 01:33N 24°26' E 118°17'6 6.2
2015-Feb-27 00:33N 24°31' E 118°13'7 6.9
2015-Feb-26 23:33N 24°25' E 118°17'0 0.0
2015-Feb-26 22:33N 24°25' E 118°17'0 0.0
2015-Feb-26 21:33N 24°25' E 118°17'0 0.0
2015-Feb-26 20:17N 24°25' E 118°17'0 0.0
2015-Feb-26 19:31N 24°25' E 118°17'0 0.0
2015-Feb-26 18:29N 24°25' E 118°17'0 0.0
2015-Feb-26 17:33N 24°25' E 118°17'0 0.0
2015-Feb-26 16:31N 24°25' E 118°17'0 0.0
2015-Feb-26 15:25N 24°25' E 118°17'9 1.5
2015-Feb-26 09:32N 24°32' E 118°12'9 8.7
2015-Feb-26 08:33N 24°25' E 118°17'0 0.4
2015-Feb-26 07:33N 24°25' E 118°17'0 0.4
2015-Feb-26 06:33N 24°25' E 118°17'9 9.0
2015-Feb-26 05:34N 24°32' E 118°11'1 0.9
2015-Feb-26 04:33N 24°32' E 118°12'8 0.5
2015-Feb-25 12:13N 24°25' E 118°17'0 0.0
2015-Feb-25 09:26N 24°25' E 118°17'1 1.6
2015-Feb-25 08:33N 24°27' E 118°17'7 6.5
2015-Feb-25 07:24N 24°32' E 118°11'910.3
2015-Feb-25 06:32N 24°25' E 118°17'1 1.4
2015-Feb-25 05:31N 24°27' E 118°17'2 0.8
2015-Feb-25 03:31N 24°25' E 118°17'0 0.3
2015-Feb-25 02:31N 24°25' E 118°17'0 0.2
2015-Feb-25 01:33N 24°25' E 118°17'0 0.0
2015-Feb-25 00:33N 24°25' E 118°17'0 0.0
2015-Feb-24 23:33N 24°25' E 118°17'0 0.0
2015-Feb-24 22:28N 24°25' E 118°17'0 0.0
2015-Feb-24 21:33N 24°25' E 118°17'0 0.0
2015-Feb-24 20:33N 24°25' E 118°17'0 0.0
2015-Feb-24 19:33N 24°25' E 118°17'0 0.0
2015-Feb-24 18:32N 24°25' E 118°17'0 0.0
2015-Feb-24 17:31N 24°25' E 118°17'0 0.0
2015-Feb-24 16:33N 24°25' E 118°17'0 0.0
2015-Feb-24 15:33N 24°25' E 118°17'0 0.0
2015-Feb-24 14:33N 24°25' E 118°17'0 0.0
2015-Feb-24 09:33N 24°25' E 118°17'0 0.0
2015-Feb-24 08:32N 24°25' E 118°17'2 1.6
2015-Feb-24 07:33N 24°27' E 118°17'7 7.3
2015-Feb-24 06:33N 24°32' E 118°11'8 8.3
2015-Feb-24 05:33N 24°26' E 118°17'1 0.7
2015-Feb-24 04:33N 24°25' E 118°17'0 0.1
2015-Feb-24 03:32N 24°25' E 118°17'1 1.4
2015-Feb-24 02:33N 24°26' E 118°17'6 6.2
2015-Feb-24 01:33N 24°31' E 118°13'7 7.5
2015-Feb-24 00:33N 24°25' E 118°17'0 0.0
2015-Feb-23 23:32N 24°25' E 118°17'0 0.0
2015-Feb-23 22:28N 24°25' E 118°17'0 0.0
2015-Feb-23 21:33N 24°25' E 118°17'0 0.0
2015-Feb-23 20:27N 24°25' E 118°17'0 0.0
2015-Feb-23 19:33N 24°25' E 118°17'0 0.0
2015-Feb-23 18:31N 24°25' E 118°17'0 0.0
2015-Feb-23 17:31N 24°25' E 118°17'0 0.0
2015-Feb-23 16:11N 24°25' E 118°17'0 0.0
2015-Feb-23 15:20N 24°25' E 118°17'0 0.0
2015-Feb-23 09:32N 24°25' E 118°17'9 9.1
2015-Feb-23 08:33N 24°32' E 118°11'9 8.7
2015-Feb-23 07:32N 24°25' E 118°17'0 0.3
2015-Feb-23 06:32N 24°25' E 118°17'0 0.0
2015-Feb-23 04:15N 24°25' E 118°17'710.0
2015-Feb-23 03:33N 24°31' E 118°13'0 0.2
2015-Feb-23 02:34N 24°31' E 118°13'8 7.5
2015-Feb-23 01:33N 24°25' E 118°17'0 0.1
2015-Feb-23 00:33N 24°25' E 118°17'0 0.0
2015-Feb-22 23:33N 24°25' E 118°17'0 0.0
2015-Feb-22 22:33N 24°25' E 118°17'0 0.0
2015-Feb-22 21:33N 24°25' E 118°17'0 0.0
2015-Feb-22 20:31N 24°25' E 118°17'0 0.0
2015-Feb-22 19:33N 24°25' E 118°17'0 0.0
2015-Feb-22 18:33N 24°25' E 118°17'  

Dump ship's entire track history